Latest Weather Observations for Richmond

IDN60801

Issued at 9:05 am EDT Thursday 23 October 2014 (issued every 30 minutes, with the page automatically refreshed every 10 minutes)

About weather observations | Map of weather stations | Latest weather observations for NSW | Other Formats
Station Details ID: 067105 Name: RICHMOND RAAF Lat: -33.60 Lon: 150.78 Height: 19.0 m
Data from the previous 72 hours. | See also: Recent months at Richmond
Date/Time
EDT
Temp
°C
App
Temp
°C
Dew
Point
Rel
Hum
%
Delta-T
°C
Wind Press
QNH
hPa
Press
MSL
hPa
Rain
since 9 am
mm
Dir
 
Spd
km/h
Gust
km/h
Spd
kts
Gust
kts
23/09:00am 17.6 17.8 14.1 80 2.0 NNE 6 9 3 5 1018.4 1018.4 0.0
23/08:30am 16.3 17.1 13.6 84 1.5 NNE 2 7 1 4 1018.4 1018.4 0.0
23/08:00am 15.1 15.8 13.5 90 0.9 WNW 2 6 1 3 1018.6 1018.6 0.0
23/07:30am 13.3 13.4 12.8 97 0.3 S 4 6 2 3 1018.5 1018.5 0.0
23/07:00am 12.1 11.5 11.8 98 0.2 SW 6 7 3 4 1018.2 1018.2 0.0
23/06:53am 12.1 12.3 11.8 98 0.2 N 2 7 1 4 1018.2 1018.2 0.0
23/06:50am 12.0 12.5 11.7 98 0.2 CALM 0 2 0 1 1018.2 1018.2 0.0
23/06:39am 11.6 12.0 11.3 98 0.2 CALM 0 0 0 0 1018.0 1018.0 0.0
23/06:30am 11.4 11.4 11.1 98 0.2 N 2 6 1 3 1017.9 1017.9 0.0
23/06:25am 11.4 10.6 11.1 98 0.2 N 6 7 3 4 1017.8 1017.8 0.0
23/06:14am 11.6 10.9 11.3 98 0.2 NNE 6 9 3 5 1017.7 1017.7 0.0
23/06:00am 11.4 11.7 10.8 96 0.3 S 0 6 0 3 1017.7 1017.7 0.0
23/05:45am 11.7 12.1 11.1 96 0.3 CALM 0 7 0 4 1017.7 1017.7 0.0
23/05:30am 11.8 12.3 11.5 98 0.2 CALM 0 0 0 0 1017.8 1017.8 0.0
23/05:00am 12.1 12.6 11.6 97 0.3 CALM 0 0 0 0 1017.8 1017.8 0.0
23/04:58am 11.9 12.3 11.4 97 0.3 CALM 0 0 0 0 1017.8 1017.8 0.0
23/04:30am 12.3 12.9 11.8 97 0.3 CALM 0 0 0 0 1017.8 1017.8 0.0
23/04:00am 12.5 13.2 12.2 98 0.2 CALM 0 0 0 0 1017.7 1017.7 0.0
23/03:30am 12.0 12.4 11.2 95 0.4 CALM 0 0 0 0 1018.0 1018.0 0.0
23/03:00am 12.3 12.8 11.5 95 0.4 CALM 0 0 0 0 1018.2 1018.2 0.0
23/02:30am 12.4 12.9 11.5 94 0.5 CALM 0 0 0 0 1018.4 1018.4 0.0
23/02:00am 12.6 12.6 11.3 92 0.7 SSW 2 6 1 3 1018.7 1018.7 0.0
23/01:30am 12.9 13.3 11.3 90 0.8 CALM 0 0 0 0 1019.0 1019.0 0.0
23/01:00am 13.3 13.8 11.5 89 1.0 CALM 0 0 0 0 1019.3 1019.3 0.0
23/12:30am 13.8 14.4 12.0 89 1.0 CALM 0 0 0 0 1019.6 1019.6 0.0
23/12:00am 14.4 15.1 12.3 87 1.1 CALM 0 0 0 0 1019.8 1019.8 0.0
 
Date/Time
EDT
Temp
°C
App
Temp
°C
Dew
Point
Rel
Hum
%
Delta-T
°C
Wind Press
QNH
hPa
Press
MSL
hPa
Rain
since 9 am
mm
Dir
 
Spd
km/h
Gust
km/h
Spd
kts
Gust
kts
22/11:30pm 14.8 15.5 12.1 84 1.5 CALM 0 0 0 0 1019.9 1019.9 0.0
22/11:00pm 16.0 16.8 12.6 80 1.9 CALM 0 0 0 0 1020.1 1020.1 0.0
22/10:30pm 16.2 16.9 12.2 77 2.2 CALM 0 0 0 0 1020.2 1020.2 0.0
22/10:00pm 17.2 16.6 12.3 73 2.7 NE 7 9 4 5 1020.2 1020.2 0.0
22/09:30pm 17.3 16.0 12.4 73 2.7 ENE 11 13 6 7 1020.1 1020.1 0.0
22/09:00pm 17.9 17.0 12.6 71 2.9 ENE 9 11 5 6 1020.1 1020.1 0.0
22/08:30pm 18.5 17.6 12.7 69 3.2 ENE 9 13 5 7 1019.8 1019.8 0.0
22/08:00pm 19.0 17.9 13.0 68 3.4 E 11 15 6 8 1019.5 1019.5 0.0
22/07:30pm 20.3 18.4 13.0 63 4.1 E 15 24 8 13 1019.1 1019.1 0.0
22/07:00pm 21.3 19.5 13.2 60 4.6 E 15 20 8 11 1019.0 1019.0 0.0
22/06:30pm 23.0 20.4 13.2 54 5.7 E 19 26 10 14 1018.7 1018.7 0.0
22/06:00pm 25.0 22.9 11.2 42 7.8 ENE 13 19 7 10 1018.7 1018.7 0.0
22/05:30pm 25.4 23.2 10.8 40 8.2 ENE 13 19 7 10 1018.8 1018.8 0.0
22/05:00pm 25.4 22.7 10.4 39 8.3 ENE 15 22 8 12 1019.1 1019.1 0.0
22/04:30pm 25.2 22.1 10.3 39 8.3 ENE 17 24 9 13 1019.4 1019.4 0.0
22/04:00pm 25.1 22.3 11.3 42 7.8 NE 17 24 9 13 1019.8 1019.8 0.0
22/03:30pm 24.5 21.1 10.4 41 7.8 NE 19 24 10 13 1020.2 1020.2 0.0
22/03:00pm 24.4 21.0 10.7 42 7.6 E 19 22 10 12 1020.8 1020.8 0.0
22/02:30pm 24.4 21.5 11.0 43 7.5 E 17 26 9 14 1021.4 1021.4 0.0
22/02:00pm 23.5 20.1 10.6 44 7.1 NE 19 28 10 15 1022.1 1022.1 0.0
22/01:30pm 22.6 19.9 9.0 42 7.3 NNE 13 20 7 11 1022.8 1022.8 0.0
22/01:00pm 22.5 19.7 10.0 45 6.8 N 15 26 8 14 1023.5 1023.5 0.0
22/12:30pm 21.7 18.5 9.9 47 6.4 NNE 17 26 9 14 1024.2 1024.2 0.0
22/12:00pm 21.1 19.1 10.0 49 6.0 N 11 20 6 11 1025.0 1025.0 0.0
22/11:30am 19.5 16.0 8.8 50 5.6 NNE 17 24 9 13 1025.6 1025.6 0.0
22/11:00am 19.6 16.7 9.5 52 5.3 N 15 20 8 11 1026.1 1026.1 0.0
22/10:30am 19.9 16.8 10.3 54 5.2 N 17 24 9 13 1026.5 1026.5 0.0
22/10:00am 18.4 14.3 8.7 53 5.0 NNE 20 28 11 15 1026.8 1026.8 0.0
22/09:30am 18.6 15.8 9.9 57 4.6 NNE 15 19 8 10 1026.9 1026.9 0.0
22/09:00am 17.7 16.8 9.1 57 4.4 N 4 11 2 6 1027.2 1027.2 0.0
22/08:30am 16.5 15.1 9.7 64 3.6 WNW 7 11 4 6 1027.2 1027.2 0.0
22/08:00am 14.9 14.7 10.3 74 2.4 NNW 2 7 1 4 1027.3 1027.3 0.0
22/07:30am 13.6 13.6 11.1 85 1.3 NNE 2 7 1 4 1027.4 1027.4 0.0
22/07:00am 12.1 11.5 10.3 89 0.9 NE 4 7 2 4 1027.4 1027.4 0.0
22/06:30am 12.1 11.0 10.0 87 1.1 E 6 7 3 4 1027.3 1027.3 0.0
22/06:00am 12.9 13.0 10.1 83 1.4 CALM 0 0 0 0 1027.2 1027.2 0.0
22/05:30am 13.9 14.0 10.1 78 2.0 CALM 0 6 0 3 1027.3 1027.3 0.0
22/05:00am 13.8 13.9 10.2 79 1.9 CALM 0 0 0 0 1027.3 1027.3 0.0
22/04:30am 14.0 12.8 10.4 79 1.9 N 7 11 4 6 1027.5 1027.5 0.0
22/04:00am 13.6 14.0 11.1 85 1.3 CALM 0 7 0 4 1027.7 1027.7 0.0
22/03:30am 13.8 13.0 11.1 84 1.4 NNE 6 7 3 4 1028.1 1028.1 0.0
22/03:00am 13.8 13.4 11.0 83 1.5 NE 4 7 2 4 1028.4 1028.4 0.0
22/02:30am 14.0 13.1 10.6 80 1.8 NE 6 7 3 4 1028.7 1028.7 0.0
22/02:00am 14.2 13.4 11.2 82 1.6 N 6 6 3 3 1029.1 1029.1 0.0
22/01:30am 14.3 13.5 10.9 80 1.8 NW 6 7 3 4 1029.5 1029.5 0.0
22/01:00am 14.7 14.1 10.3 75 2.3 NNE 4 9 2 5 1030.0 1030.0 0.0
22/12:30am 14.7 13.8 10.7 77 2.1 NW 6 7 3 4 1030.5 1030.5 0.0
22/12:00am 14.7 13.8 11.3 80 1.8 NW 7 7 4 4 1030.8 1030.8 0.0
 
Date/Time
EDT
Temp
°C
App
Temp
°C
Dew
Point
Rel
Hum
%
Delta-T
°C
Wind Press
QNH
hPa
Press
MSL
hPa
Rain
since 9 am
mm
Dir
 
Spd
km/h
Gust
km/h
Spd
kts
Gust
kts
21/11:30pm 15.1 15.3 10.7 75 2.3 CALM 0 0 0 0 1031.0 1031.0 0.0
21/11:00pm 15.1 15.3 10.7 75 2.3 CALM 0 0 0 0 1031.1 1031.1 0.0
21/10:30pm 15.2 15.5 10.8 75 2.3 CALM 0 0 0 0 1031.2 1031.2 0.0
21/10:00pm 15.3 14.4 10.7 74 2.4 ENE 6 7 3 4 1031.2 1031.2 0.0
21/09:30pm 15.4 14.3 10.6 73 2.5 ENE 7 9 4 5 1031.2 1031.2 0.0
21/09:00pm 15.6 14.4 10.2 70 2.8 ENE 7 9 4 5 1031.1 1031.1 0.0
21/08:30pm 15.7 14.1 10.2 70 2.9 ENE 9 13 5 7 1030.9 1030.9 0.0
21/08:00pm 15.8 13.8 10.1 69 3.0 ENE 11 13 6 7 1030.5 1030.5 0.0
21/07:30pm 16.0 14.0 10.1 68 3.1 E 11 15 6 8 1030.3 1030.3 0.0
21/07:00pm 16.3 13.4 9.7 65 3.4 E 15 19 8 10 1030.1 1030.1 0.0
21/06:30pm 16.6 14.2 10.0 65 3.5 E 13 19 7 10 1030.0 1030.0 0.0
21/06:00pm 17.3 15.3 8.7 57 4.4 ENE 9 11 5 6 1029.8 1029.8 0.0
21/05:30pm 17.6 15.2 8.5 55 4.7 E 11 17 6 9 1029.7 1029.7 0.0
21/05:00pm 17.8 15.2 7.8 52 5.0 E 11 15 6 8 1029.7 1029.7 0.0
21/04:30pm 17.9 15.4 8.2 53 5.0 ESE 11 15 6 8 1029.6 1029.6 0.0
21/04:00pm 17.9 16.2 8.2 53 4.9 S 7 17 4 9 1029.7 1029.7 0.0
21/03:30pm 17.8 16.7 8.4 54 4.8 SSW 4 9 2 5 1030.0 1030.0 0.0
21/03:00pm 17.5 15.5 8.6 56 4.5 ESE 9 15 5 8 1030.5 1030.5 0.0
21/02:30pm 17.2 15.7 9.1 59 4.2 ENE 7 11 4 6 1030.8 1030.8 0.0
21/02:00pm 16.9 14.9 8.8 59 4.1 E 9 13 5 7 1031.3 1031.3 0.0
21/01:30pm 16.8 15.6 9.5 62 3.8 E 6 9 3 5 1031.8 1031.8 0.0
21/01:00pm 15.9 14.7 10.2 69 3.0 SE 7 9 4 5 1032.1 1032.1 0.0
21/12:30pm 15.6 14.3 11.4 76 2.3 ENE 9 15 5 8 1032.4 1032.4 0.0
21/12:00pm 15.8 14.9 11.4 75 2.3 E 7 13 4 7 1032.7 1032.7 0.0
21/11:30am 16.6 15.1 10.5 67 3.2 ESE 9 13 5 7 1032.7 1032.7 0.0
21/11:00am 17.2 16.2 10.3 64 3.6 ENE 6 9 3 5 1032.9 1032.9 0.0
21/10:30am 16.7 15.9 11.6 72 2.8 SSW 7 13 4 7 1032.9 1032.9 0.0
21/10:00am 16.3 15.9 12.3 77 2.2 SSE 6 9 3 5 1033.0 1033.0 0.0
21/09:30am 15.7 14.8 12.5 81 1.8 S 9 15 5 8 1033.0 1033.0 0.0
21/09:00am 15.0 14.0 12.3 84 1.5 SSW 9 13 5 7 1032.7 1032.7 1.6
21/08:30am 14.4 13.5 12.6 89 1.0 SSW 9 13 5 7 1032.6 1032.6 1.6
21/08:00am 14.1 13.2 12.7 91 0.8 SW 9 13 5 7 1032.3 1032.3 1.6
21/07:30am 13.7 12.8 12.6 93 0.6 WSW 9 11 5 6 1032.0 1032.0 1.6
21/07:00am 13.4 12.5 12.6 95 0.4 SW 9 11 5 6 1031.8 1031.8 1.6
21/06:30am 13.3 12.4 12.7 96 0.3 SW 9 13 5 7 1031.5 1031.5 1.6
21/06:00am 13.4 12.6 12.9 97 0.3 SW 9 13 5 7 1031.3 1031.3 1.6
21/05:30am 13.3 12.8 12.8 97 0.3 SW 7 9 4 5 1031.0 1031.0 1.6
21/05:00am 13.4 13.1 12.8 96 0.3 SSE 6 7 3 4 1030.9 1030.9 1.6
21/04:54am 13.4 13.1 12.8 96 0.3 SSE 6 7 3 4 1030.9 1030.9 1.6
21/04:52am 13.3 13.0 12.7 96 0.3 SSE 6 9 3 5 1030.9 1030.9 1.6
21/04:30am 13.3 12.5 12.8 97 0.3 S 9 13 5 7 1031.0 1031.0 1.4
21/04:20am 13.3 13.0 12.8 97 0.3 SSW 6 9 3 5 1031.1 1031.1 1.0
21/04:19am 13.3 13.0 12.8 97 0.3 SSW 6 9 3 5 1031.1 1031.1 1.0
21/04:00am 13.2 12.9 12.7 97 0.3 SSW 6 7 3 4 1031.0 1031.0 1.0
21/03:39am 13.3 13.0 12.8 97 0.3 SSW 6 7 3 4 1031.1 1031.1 1.0
21/03:37am 13.3 13.0 12.8 97 0.3 SSW 6 7 3 4 1031.1 1031.1 1.0
21/03:30am 13.3 13.0 12.8 97 0.3 SSW 6 9 3 5 1031.1 1031.1 1.0
21/03:00am 13.2 12.7 12.7 97 0.3 WSW 7 7 4 4 1031.2 1031.2 1.0
21/02:52am 13.1 12.6 12.6 97 0.3 WSW 7 9 4 5 1031.2 1031.2 1.0
21/02:44am 13.1 12.6 12.6 97 0.3 W 7 9 4 5 1031.2 1031.2 1.0
21/02:30am 13.0 12.6 12.5 97 0.3 SSW 6 7 3 4 1031.3 1031.3 1.0
21/02:07am 13.2 12.3 12.6 96 0.3 S 9 13 5 7 1031.4 1031.4 1.0
21/02:00am 13.2 12.3 12.6 96 0.3 S 9 11 5 6 1031.5 1031.5 1.0
21/01:30am 13.1 12.6 12.5 96 0.3 S 7 9 4 5 1031.7 1031.7 1.0
21/01:29am 13.1 12.6 12.5 96 0.3 S 7 11 4 6 1031.7 1031.7 1.0
21/01:00am 12.9 11.9 12.3 96 0.3 SW 9 11 5 6 1031.6 1031.6 1.0
21/12:30am 12.8 11.4 12.2 96 0.3 WSW 11 13 6 7 1031.9 1031.9 1.0
21/12:01am 12.7 10.9 12.1 96 0.3 WNW 13 17 7 9 1032.1 1032.1 1.0
21/12:00am 12.7 10.9 12.1 96 0.3 WNW 13 17 7 9 1032.1 1032.1 1.0
 
Date/Time
EDT
Temp
°C
App
Temp
°C
Dew
Point
Rel
Hum
%
Delta-T
°C
Wind Press
QNH
hPa
Press
MSL
hPa
Rain
since 9 am
mm
Dir
 
Spd
km/h
Gust
km/h
Spd
kts
Gust
kts
20/11:30pm 13.0 11.6 12.2 95 0.4 W 11 13 6 7 1032.3 1032.3 0.8
20/11:00pm 13.2 13.8 11.9 92 0.7 CALM 0 0 0 0 1032.5 1032.5 0.4
20/10:30pm 13.4 12.6 11.8 90 0.9 SW 7 13 4 7 1032.3 1032.3 0.0
20/10:00pm 14.4 13.8 11.7 84 1.4 NNE 6 9 3 5 1032.1 1032.1 0.0
20/09:51pm 14.6 13.8 11.6 82 1.6 ENE 7 11 4 6 1032.2 1032.2 0.0
20/09:30pm 15.0 12.9 11.2 78 2.0 W 13 17 7 9 1032.0 1032.0 0.0
20/09:00pm 15.2 14.3 11.4 78 2.0 W 7 9 4 5 1031.8 1031.8 0.0
20/08:30pm 15.2 14.5 11.4 78 2.0 S 6 7 3 4 1031.4 1031.4 0.0
20/08:00pm 15.0 13.0 11.4 79 1.9 S 13 28 7 15 1031.3 1031.3 0.0
20/07:30pm 16.5 14.6 10.6 68 3.1 S 11 20 6 11 1030.8 1030.8 0.0
20/07:00pm 16.3 14.4 10.4 68 3.1 S 11 19 6 10 1030.5 1030.5 0.0
20/06:30pm 16.7 15.6 10.5 67 3.3 S 7 11 4 6 1030.3 1030.3 0.0
20/06:00pm 16.6 14.5 11.1 70 2.9 SSE 13 19 7 10 1030.1 1030.1 0.0
20/05:30pm 17.2 14.0 11.2 68 3.2 SE 19 26 10 14 1029.9 1029.9 0.0
20/05:00pm 17.2 13.0 11.2 68 3.2 SE 24 33 13 18 1029.8 1029.8 0.0
20/04:30pm 17.6 14.4 11.4 67 3.4 SE 19 26 10 14 1029.5 1029.5 0.0
20/04:00pm 17.2 14.2 12.1 72 2.8 SSE 19 32 10 17 1029.5 1029.5 0.0
20/03:30pm 17.9 14.5 12.6 71 3.0 SSE 22 30 12 16 1029.6 1029.6 0.0
20/03:00pm 18.2 14.9 11.7 66 3.5 SSE 20 30 11 16 1029.5 1029.5 0.0
20/02:30pm 18.8 15.7 12.1 65 3.7 SE 20 28 11 15 1029.7 1029.7 0.0
20/02:00pm 19.7 17.1 10.7 56 4.9 SSW 15 20 8 11 1029.8 1029.8 0.0
20/01:30pm 19.5 17.1 10.2 55 5.0 SSW 13 20 7 11 1030.1 1030.1 0.0
20/01:00pm 19.3 16.1 11.1 59 4.4 S 19 26 10 14 1030.2 1030.2 0.0
20/12:30pm 19.0 14.7 10.6 58 4.5 SSE 24 33 13 18 1030.4 1030.4 0.0
20/12:00pm 18.4 14.8 10.7 61 4.1 SSE 20 30 11 16 1030.6 1030.6 0.0
20/11:30am 18.5 14.8 10.3 59 4.4 SSE 20 28 11 15 1030.6 1030.6 0.0
20/11:00am 18.6 15.0 10.7 60 4.2 S 20 30 11 16 1030.4 1030.4 0.0
20/10:30am 18.5 15.0 10.8 61 4.2 SSE 20 32 11 17 1030.4 1030.4 0.0
20/10:00am 18.6 15.9 11.7 64 3.8 SSE 17 22 9 12 1030.1 1030.1 0.0
20/09:30am 18.6 15.1 10.9 61 4.2 S 20 28 11 15 1029.6 1029.6 0.0

Other Formats:

Comma delimited format used in spreadsheet applications
http://www.bom.gov.au/fwo/IDN60801/IDN60801.95753.axf

JavaScript Object Notation format (JSON) in row-major order
http://www.bom.gov.au/fwo/IDN60801/IDN60801.95753.json